sensor_id;sensor_type;location;lat;lon;timestamp;noise_LAeq;noise_LA_min;noise_LA_max;noise_LA01;noise_LA95
67314;Laerm;57663;51.436;5.978;2022-07-22T00:00:00;41.10;39.45;50.74;;
67314;Laerm;57663;51.436;5.978;2022-07-22T00:00:11;40.69;39.47;41.87;;
67314;Laerm;57663;51.436;5.978;2022-07-22T00:00:21;40.70;39.27;44.03;;
67314;Laerm;57663;51.436;5.978;2022-07-22T00:00:31;40.74;39.34;42.07;;
67314;Laerm;57663;51.436;5.978;2022-07-22T00:00:42;41.02;39.85;42.49;;
67314;Laerm;57663;51.436;5.978;2022-07-22T00:00:52;41.46;40.17;43.75;;
67314;Laerm;57663;51.436;5.978;2022-07-22T00:01:02;48.16;41.51;52.69;;
67314;Laerm;57663;51.436;5.978;2022-07-22T00:01:13;50.15;44.52;57.60;;
67314;Laerm;57663;51.436;5.978;2022-07-22T00:01:23;55.90;51.99;59.09;;
67314;Laerm;57663;51.436;5.978;2022-07-22T00:01:34;62.24;55.72;67.08;;
67314;Laerm;57663;51.436;5.978;2022-07-22T00:01:44;56.69;45.71;64.91;;
67314;Laerm;57663;51.436;5.978;2022-07-22T00:01:54;49.14;43.36;56.08;;
67314;Laerm;57663;51.436;5.978;2022-07-22T00:02:05;43.28;40.47;48.09;;
67314;Laerm;57663;51.436;5.978;2022-07-22T00:02:15;42.50;39.24;46.48;;
67314;Laerm;57663;51.436;5.978;2022-07-22T00:02:26;40.69;39.65;44.35;;
67314;Laerm;57663;51.436;5.978;2022-07-22T00:02:36;40.58;39.36;41.91;;
67314;Laerm;57663;51.436;5.978;2022-07-22T00:02:46;40.58;39.38;41.82;;
67314;Laerm;57663;51.436;5.978;2022-07-22T00:03:07;40.62;39.40;41.88;;
67314;Laerm;57663;51.436;5.978;2022-07-22T00:03:17;40.30;38.82;41.72;;
67314;Laerm;57663;51.436;5.978;2022-07-22T00:03:27;40.32;39.10;41.78;;
67314;Laerm;57663;51.436;5.978;2022-07-22T00:03:38;40.62;39.44;41.78;;
67314;Laerm;57663;51.436;5.978;2022-07-22T00:03:48;40.42;39.30;41.62;;
67314;Laerm;57663;51.436;5.978;2022-07-22T00:03:58;40.74;39.01;42.50;;
67314;Laerm;57663;51.436;5.978;2022-07-22T00:04:09;40.87;39.68;42.36;;
67314;Laerm;57663;51.436;5.978;2022-07-22T00:04:20;40.59;39.26;43.87;;
67314;Laerm;57663;51.436;5.978;2022-07-22T00:04:30;40.55;39.50;41.92;;
67314;Laerm;57663;51.436;5.978;2022-07-22T00:04:41;40.43;39.04;41.46;;
67314;Laerm;57663;51.436;5.978;2022-07-22T00:04:51;40.37;39.31;41.52;;
67314;Laerm;57663;51.436;5.978;2022-07-22T00:05:02;40.37;38.76;41.57;;
67314;Laerm;57663;51.436;5.978;2022-07-22T00:05:12;40.47;39.32;42.16;;
67314;Laerm;57663;51.436;5.978;2022-07-22T00:05:22;40.51;39.10;41.64;;
67314;Laerm;57663;51.436;5.978;2022-07-22T00:05:33;40.37;39.12;41.63;;
67314;Laerm;57663;51.436;5.978;2022-07-22T00:05:43;40.41;39.05;41.88;;
67314;Laerm;57663;51.436;5.978;2022-07-22T00:05:53;40.44;39.30;41.87;;
67314;Laerm;57663;51.436;5.978;2022-07-22T00:06:04;40.42;39.02;42.88;;
67314;Laerm;57663;51.436;5.978;2022-07-22T00:06:14;40.42;39.34;41.82;;
67314;Laerm;57663;51.436;5.978;2022-07-22T00:06:24;40.47;39.37;42.69;;
67314;Laerm;57663;51.436;5.978;2022-07-22T00:06:35;40.57;39.47;41.97;;
67314;Laerm;57663;51.436;5.978;2022-07-22T00:06:45;40.40;38.93;42.18;;
67314;Laerm;57663;51.436;5.978;2022-07-22T00:06:56;40.47;39.18;41.76;;
67314;Laerm;57663;51.436;5.978;2022-07-22T00:07:06;40.56;39.25;41.58;;
67314;Laerm;57663;51.436;5.978;2022-07-22T00:07:16;40.54;39.26;41.67;;
67314;Laerm;57663;51.436;5.978;2022-07-22T00:07:27;40.38;39.18;42.92;;
67314;Laerm;57663;51.436;5.978;2022-07-22T00:07:38;40.56;39.39;41.82;;
67314;Laerm;57663;51.436;5.978;2022-07-22T00:07:48;40.77;39.42;43.98;;
67314;Laerm;57663;51.436;5.978;2022-07-22T00:07:58;40.53;39.54;41.62;;
67314;Laerm;57663;51.436;5.978;2022-07-22T00:08:08;40.33;38.70;43.04;;
67314;Laerm;57663;51.436;5.978;2022-07-22T00:08:19;40.41;39.34;43.60;;
67314;Laerm;57663;51.436;5.978;2022-07-22T00:08:29;40.54;39.47;41.78;;
67314;Laerm;57663;51.436;5.978;2022-07-22T00:08:40;40.58;39.42;44.68;;
67314;Laerm;57663;51.436;5.978;2022-07-22T00:08:50;40.34;39.42;41.42;;
67314;Laerm;57663;51.436;5.978;2022-07-22T00:09:00;40.44;39.07;42.80;;
67314;Laerm;57663;51.436;5.978;2022-07-22T00:09:10;40.66;39.41;41.82;;
67314;Laerm;57663;51.436;5.978;2022-07-22T00:09:21;40.56;39.46;42.04;;
67314;Laerm;57663;51.436;5.978;2022-07-22T00:09:31;40.45;39.32;43.29;;
67314;Laerm;57663;51.436;5.978;2022-07-22T00:09:42;40.65;39.55;43.21;;
67314;Laerm;57663;51.436;5.978;2022-07-22T00:09:52;40.59;39.26;42.73;;
67314;Laerm;57663;51.436;5.978;2022-07-22T00:10:04;40.56;39.39;42.92;;
67314;Laerm;57663;51.436;5.978;2022-07-22T00:10:14;40.58;39.42;41.76;;
67314;Laerm;57663;51.436;5.978;2022-07-22T00:10:25;40.80;39.52;43.66;;
67314;Laerm;57663;51.436;5.978;2022-07-22T00:10:35;40.49;39.31;42.19;;
67314;Laerm;57663;51.436;5.978;2022-07-22T00:10:46;40.48;39.37;41.61;;
67314;Laerm;57663;51.436;5.978;2022-07-22T00:10:56;40.55;39.49;43.30;;
67314;Laerm;57663;51.436;5.978;2022-07-22T00:11:06;40.72;39.50;42.92;;
67314;Laerm;57663;51.436;5.978;2022-07-22T00:11:17;41.09;39.97;44.76;;
67314;Laerm;57663;51.436;5.978;2022-07-22T00:11:27;40.80;39.75;42.50;;
67314;Laerm;57663;51.436;5.978;2022-07-22T00:11:38;40.90;39.68;46.19;;
67314;Laerm;57663;51.436;5.978;2022-07-22T00:11:48;40.62;39.16;41.81;;
67314;Laerm;57663;51.436;5.978;2022-07-22T00:11:59;40.51;39.16;41.95;;
67314;Laerm;57663;51.436;5.978;2022-07-22T00:12:09;40.65;39.43;41.83;;
67314;Laerm;57663;51.436;5.978;2022-07-22T00:12:20;40.54;39.34;42.09;;
67314;Laerm;57663;51.436;5.978;2022-07-22T00:12:30;40.36;39.35;41.52;;
67314;Laerm;57663;51.436;5.978;2022-07-22T00:12:40;40.57;39.46;42.15;;
67314;Laerm;57663;51.436;5.978;2022-07-22T00:12:51;40.61;39.58;41.94;;
67314;Laerm;57663;51.436;5.978;2022-07-22T00:13:01;40.54;39.38;43.20;;
67314;Laerm;57663;51.436;5.978;2022-07-22T00:13:12;40.42;39.31;41.63;;
67314;Laerm;57663;51.436;5.978;2022-07-22T00:13:22;40.48;39.36;41.82;;
67314;Laerm;57663;51.436;5.978;2022-07-22T00:13:32;40.53;39.45;43.19;;
67314;Laerm;57663;51.436;5.978;2022-07-22T00:13:42;40.40;39.47;41.71;;
67314;Laerm;57663;51.436;5.978;2022-07-22T00:13:53;40.55;39.06;42.36;;
67314;Laerm;57663;51.436;5.978;2022-07-22T00:14:03;41.32;39.91;48.18;;
67314;Laerm;57663;51.436;5.978;2022-07-22T00:14:14;40.31;39.21;41.52;;
67314;Laerm;57663;51.436;5.978;2022-07-22T00:14:24;40.59;39.20;43.31;;
67314;Laerm;57663;51.436;5.978;2022-07-22T00:14:34;45.91;40.00;50.34;;
67314;Laerm;57663;51.436;5.978;2022-07-22T00:14:44;43.58;40.17;48.22;;
67314;Laerm;57663;51.436;5.978;2022-07-22T00:14:55;40.90;39.81;43.36;;
67314;Laerm;57663;51.436;5.978;2022-07-22T00:15:05;40.73;39.52;42.25;;
67314;Laerm;57663;51.436;5.978;2022-07-22T00:15:16;40.82;39.63;43.63;;
67314;Laerm;57663;51.436;5.978;2022-07-22T00:15:27;40.45;39.31;44.20;;
67314;Laerm;57663;51.436;5.978;2022-07-22T00:15:37;40.53;39.02;42.10;;
67314;Laerm;57663;51.436;5.978;2022-07-22T00:15:48;40.90;39.65;42.34;;
67314;Laerm;57663;51.436;5.978;2022-07-22T00:15:58;40.83;39.05;43.24;;
67314;Laerm;57663;51.436;5.978;2022-07-22T00:16:08;40.47;39.36;41.98;;
67314;Laerm;57663;51.436;5.978;2022-07-22T00:16:19;40.42;39.35;41.71;;
67314;Laerm;57663;51.436;5.978;2022-07-22T00:16:29;40.56;39.35;41.85;;
67314;Laerm;57663;51.436;5.978;2022-07-22T00:16:40;40.55;39.35;41.79;;
67314;Laerm;57663;51.436;5.978;2022-07-22T00:16:50;40.50;39.47;41.77;;
67314;Laerm;57663;51.436;5.978;2022-07-22T00:17:00;40.41;39.23;43.41;;
67314;Laerm;57663;51.436;5.978;2022-07-22T00:17:11;40.54;38.70;41.73;;
67314;Laerm;57663;51.436;5.978;2022-07-22T00:17:21;40.67;39.31;41.87;;
67314;Laerm;57663;51.436;5.978;2022-07-22T00:17:31;40.64;39.54;45.21;;
67314;Laerm;57663;51.436;5.978;2022-07-22T00:17:42;40.68;39.58;43.48;;
67314;Laerm;57663;51.436;5.978;2022-07-22T00:17:52;40.81;39.34;42.89;;
67314;Laerm;57663;51.436;5.978;2022-07-22T00:18:03;40.58;39.16;41.95;;
67314;Laerm;57663;51.436;5.978;2022-07-22T00:18:13;40.58;39.60;41.87;;
67314;Laerm;57663;51.436;5.978;2022-07-22T00:18:23;40.72;39.43;41.74;;
67314;Laerm;57663;51.436;5.978;2022-07-22T00:18:34;40.51;39.38;43.51;;
67314;Laerm;57663;51.436;5.978;2022-07-22T00:18:44;40.65;39.44;42.76;;
67314;Laerm;57663;51.436;5.978;2022-07-22T00:18:54;40.48;39.32;41.63;;
67314;Laerm;57663;51.436;5.978;2022-07-22T00:19:05;40.20;38.86;41.25;;
67314;Laerm;57663;51.436;5.978;2022-07-22T00:19:15;40.68;39.62;41.92;;
67314;Laerm;57663;51.436;5.978;2022-07-22T00:19:26;40.84;39.67;41.93;;
67314;Laerm;57663;51.436;5.978;2022-07-22T00:19:36;40.67;39.38;42.11;;
67314;Laerm;57663;51.436;5.978;2022-07-22T00:19:47;40.60;39.35;42.13;;
67314;Laerm;57663;51.436;5.978;2022-07-22T00:19:57;40.70;39.64;41.94;;
67314;Laerm;57663;51.436;5.978;2022-07-22T00:20:08;40.50;39.17;41.66;;
67314;Laerm;57663;51.436;5.978;2022-07-22T00:20:18;40.45;39.48;42.43;;
67314;Laerm;57663;51.436;5.978;2022-07-22T00:20:29;40.60;39.66;41.61;;
67314;Laerm;57663;51.436;5.978;2022-07-22T00:20:39;40.48;39.14;41.63;;
67314;Laerm;57663;51.436;5.978;2022-07-22T00:20:50;40.56;39.15;46.39;;
67314;Laerm;57663;51.436;5.978;2022-07-22T00:21:00;40.79;39.57;43.54;;
67314;Laerm;57663;51.436;5.978;2022-07-22T00:21:10;40.76;39.66;42.09;;
67314;Laerm;57663;51.436;5.978;2022-07-22T00:21:21;40.75;39.54;42.62;;
67314;Laerm;57663;51.436;5.978;2022-07-22T00:21:31;40.91;39.56;42.15;;
67314;Laerm;57663;51.436;5.978;2022-07-22T00:21:41;40.71;39.25;42.14;;
67314;Laerm;57663;51.436;5.978;2022-07-22T00:21:52;40.52;39.31;42.11;;
67314;Laerm;57663;51.436;5.978;2022-07-22T00:22:02;40.51;39.32;41.57;;
67314;Laerm;57663;51.436;5.978;2022-07-22T00:22:13;40.80;39.49;45.56;;
67314;Laerm;57663;51.436;5.978;2022-07-22T00:22:23;41.00;40.10;42.31;;
67314;Laerm;57663;51.436;5.978;2022-07-22T00:22:34;40.45;39.38;41.75;;
67314;Laerm;57663;51.436;5.978;2022-07-22T00:22:44;40.73;39.08;42.07;;
67314;Laerm;57663;51.436;5.978;2022-07-22T00:22:55;40.84;39.45;42.19;;
67314;Laerm;57663;51.436;5.978;2022-07-22T00:23:05;40.62;39.63;41.56;;
67314;Laerm;57663;51.436;5.978;2022-07-22T00:23:15;40.69;39.62;41.94;;
67314;Laerm;57663;51.436;5.978;2022-07-22T00:23:26;40.70;39.36;42.25;;
67314;Laerm;57663;51.436;5.978;2022-07-22T00:23:36;40.91;39.71;44.66;;
67314;Laerm;57663;51.436;5.978;2022-07-22T00:23:46;41.11;39.70;42.56;;
67314;Laerm;57663;51.436;5.978;2022-07-22T00:23:57;40.78;39.30;41.97;;
67314;Laerm;57663;51.436;5.978;2022-07-22T00:24:07;40.61;39.24;42.47;;
67314;Laerm;57663;51.436;5.978;2022-07-22T00:24:18;40.52;39.12;46.82;;
67314;Laerm;57663;51.436;5.978;2022-07-22T00:24:28;40.42;39.30;41.49;;
67314;Laerm;57663;51.436;5.978;2022-07-22T00:24:38;40.36;38.89;42.24;;
67314;Laerm;57663;51.436;5.978;2022-07-22T00:24:49;40.47;39.32;41.77;;
67314;Laerm;57663;51.436;5.978;2022-07-22T00:24:59;40.58;39.54;41.61;;
67314;Laerm;57663;51.436;5.978;2022-07-22T00:25:09;40.52;39.44;41.80;;
67314;Laerm;57663;51.436;5.978;2022-07-22T00:25:20;40.76;39.49;42.19;;
67314;Laerm;57663;51.436;5.978;2022-07-22T00:25:30;40.75;39.30;42.25;;
67314;Laerm;57663;51.436;5.978;2022-07-22T00:25:40;40.74;39.37;41.71;;
67314;Laerm;57663;51.436;5.978;2022-07-22T00:25:51;42.54;39.65;46.02;;
67314;Laerm;57663;51.436;5.978;2022-07-22T00:26:01;45.80;41.69;48.94;;
67314;Laerm;57663;51.436;5.978;2022-07-22T00:26:12;41.64;39.90;43.92;;
67314;Laerm;57663;51.436;5.978;2022-07-22T00:26:22;40.74;39.59;42.09;;
67314;Laerm;57663;51.436;5.978;2022-07-22T00:26:32;40.86;39.77;41.96;;
67314;Laerm;57663;51.436;5.978;2022-07-22T00:26:43;40.78;39.66;41.71;;
67314;Laerm;57663;51.436;5.978;2022-07-22T00:26:53;40.73;39.43;42.27;;
67314;Laerm;57663;51.436;5.978;2022-07-22T00:27:04;41.25;39.59;48.82;;
67314;Laerm;57663;51.436;5.978;2022-07-22T00:27:14;41.35;39.59;47.04;;
67314;Laerm;57663;51.436;5.978;2022-07-22T00:27:24;40.59;39.28;41.86;;
67314;Laerm;57663;51.436;5.978;2022-07-22T00:27:34;40.91;39.88;42.17;;
67314;Laerm;57663;51.436;5.978;2022-07-22T00:27:45;40.51;39.30;42.14;;
67314;Laerm;57663;51.436;5.978;2022-07-22T00:27:55;40.74;39.44;42.13;;
67314;Laerm;57663;51.436;5.978;2022-07-22T00:28:05;40.67;39.54;41.76;;
67314;Laerm;57663;51.436;5.978;2022-07-22T00:28:16;40.61;39.43;42.27;;
67314;Laerm;57663;51.436;5.978;2022-07-22T00:28:26;40.73;39.60;42.06;;
67314;Laerm;57663;51.436;5.978;2022-07-22T00:28:36;40.74;39.23;43.15;;
67314;Laerm;57663;51.436;5.978;2022-07-22T00:28:47;40.74;39.43;44.94;;
67314;Laerm;57663;51.436;5.978;2022-07-22T00:28:57;40.57;39.19;42.23;;
67314;Laerm;57663;51.436;5.978;2022-07-22T00:29:07;40.70;39.05;41.84;;
67314;Laerm;57663;51.436;5.978;2022-07-22T00:29:17;40.84;39.54;42.23;;
67314;Laerm;57663;51.436;5.978;2022-07-22T00:29:28;40.63;39.35;42.00;;
67314;Laerm;57663;51.436;5.978;2022-07-22T00:29:39;40.61;39.42;41.83;;
67314;Laerm;57663;51.436;5.978;2022-07-22T00:29:49;40.67;39.32;41.80;;
67314;Laerm;57663;51.436;5.978;2022-07-22T00:30:00;40.56;39.17;42.23;;
67314;Laerm;57663;51.436;5.978;2022-07-22T00:30:10;40.80;39.80;42.03;;
67314;Laerm;57663;51.436;5.978;2022-07-22T00:30:21;40.58;39.24;41.66;;
67314;Laerm;57663;51.436;5.978;2022-07-22T00:30:32;40.83;39.66;41.93;;
67314;Laerm;57663;51.436;5.978;2022-07-22T00:30:42;40.54;38.87;42.05;;
67314;Laerm;57663;51.436;5.978;2022-07-22T00:30:53;40.47;39.03;42.26;;
67314;Laerm;57663;51.436;5.978;2022-07-22T00:31:03;40.42;38.64;42.73;;
67314;Laerm;57663;51.436;5.978;2022-07-22T00:31:13;41.38;39.04;50.40;;
67314;Laerm;57663;51.436;5.978;2022-07-22T00:31:24;40.57;39.36;41.63;;
67314;Laerm;57663;51.436;5.978;2022-07-22T00:31:34;40.93;39.53;44.66;;
67314;Laerm;57663;51.436;5.978;2022-07-22T00:31:45;40.96;39.65;45.25;;
67314;Laerm;57663;51.436;5.978;2022-07-22T00:31:55;40.99;39.88;50.22;;
67314;Laerm;57663;51.436;5.978;2022-07-22T00:32:05;40.84;39.71;42.22;;
67314;Laerm;57663;51.436;5.978;2022-07-22T00:32:16;41.09;39.76;42.49;;
67314;Laerm;57663;51.436;5.978;2022-07-22T00:32:26;40.77;39.51;43.14;;
67314;Laerm;57663;51.436;5.978;2022-07-22T00:32:36;40.74;39.42;41.81;;
67314;Laerm;57663;51.436;5.978;2022-07-22T00:32:46;40.72;39.60;42.05;;
67314;Laerm;57663;51.436;5.978;2022-07-22T00:32:57;40.89;39.59;42.21;;
67314;Laerm;57663;51.436;5.978;2022-07-22T00:33:07;40.68;39.49;41.79;;
67314;Laerm;57663;51.436;5.978;2022-07-22T00:33:17;41.01;39.87;42.07;;
67314;Laerm;57663;51.436;5.978;2022-07-22T00:33:28;40.81;39.43;42.68;;
67314;Laerm;57663;51.436;5.978;2022-07-22T00:33:38;40.47;39.27;41.85;;
67314;Laerm;57663;51.436;5.978;2022-07-22T00:33:48;40.79;39.60;43.19;;
67314;Laerm;57663;51.436;5.978;2022-07-22T00:33:59;40.65;39.54;43.75;;
67314;Laerm;57663;51.436;5.978;2022-07-22T00:34:11;40.67;39.17;42.11;;
67314;Laerm;57663;51.436;5.978;2022-07-22T00:34:21;40.70;39.63;43.53;;
67314;Laerm;57663;51.436;5.978;2022-07-22T00:34:31;40.56;39.41;41.70;;
67314;Laerm;57663;51.436;5.978;2022-07-22T00:34:42;40.42;39.16;41.66;;
67314;Laerm;57663;51.436;5.978;2022-07-22T00:34:52;40.43;39.55;41.53;;
67314;Laerm;57663;51.436;5.978;2022-07-22T00:35:02;40.54;39.63;41.59;;
67314;Laerm;57663;51.436;5.978;2022-07-22T00:35:13;40.65;39.55;41.79;;
67314;Laerm;57663;51.436;5.978;2022-07-22T00:35:23;40.60;39.51;41.90;;
67314;Laerm;57663;51.436;5.978;2022-07-22T00:35:33;40.96;39.76;41.93;;
67314;Laerm;57663;51.436;5.978;2022-07-22T00:35:44;40.71;39.58;42.37;;
67314;Laerm;57663;51.436;5.978;2022-07-22T00:35:54;40.54;39.18;41.60;;
67314;Laerm;57663;51.436;5.978;2022-07-22T00:36:05;40.48;39.39;41.49;;
67314;Laerm;57663;51.436;5.978;2022-07-22T00:36:16;40.58;39.44;41.57;;
67314;Laerm;57663;51.436;5.978;2022-07-22T00:36:27;40.62;39.61;42.08;;
67314;Laerm;57663;51.436;5.978;2022-07-22T00:36:37;40.78;39.64;41.82;;
67314;Laerm;57663;51.436;5.978;2022-07-22T00:36:47;40.68;39.46;41.65;;
67314;Laerm;57663;51.436;5.978;2022-07-22T00:36:58;40.62;39.45;41.50;;
67314;Laerm;57663;51.436;5.978;2022-07-22T00:37:08;40.65;39.53;41.77;;
67314;Laerm;57663;51.436;5.978;2022-07-22T00:37:19;40.53;39.11;44.22;;
67314;Laerm;57663;51.436;5.978;2022-07-22T00:37:29;40.44;39.34;42.10;;
67314;Laerm;57663;51.436;5.978;2022-07-22T00:37:39;41.08;39.18;47.90;;
67314;Laerm;57663;51.436;5.978;2022-07-22T00:37:50;40.71;39.54;42.89;;
67314;Laerm;57663;51.436;5.978;2022-07-22T00:38:00;40.35;38.93;43.06;;
67314;Laerm;57663;51.436;5.978;2022-07-22T00:38:10;40.49;39.23;41.68;;
67314;Laerm;57663;51.436;5.978;2022-07-22T00:38:21;40.62;39.32;41.79;;
67314;Laerm;57663;51.436;5.978;2022-07-22T00:38:31;40.73;39.69;47.00;;
67314;Laerm;57663;51.436;5.978;2022-07-22T00:38:41;40.79;39.84;41.85;;
67314;Laerm;57663;51.436;5.978;2022-07-22T00:38:51;40.72;39.36;41.76;;
67314;Laerm;57663;51.436;5.978;2022-07-22T00:39:02;40.70;39.62;44.70;;
67314;Laerm;57663;51.436;5.978;2022-07-22T00:39:12;40.35;39.22;42.60;;
67314;Laerm;57663;51.436;5.978;2022-07-22T00:39:23;40.55;39.44;41.77;;
67314;Laerm;57663;51.436;5.978;2022-07-22T00:39:33;40.82;39.49;47.34;;
67314;Laerm;57663;51.436;5.978;2022-07-22T00:39:43;40.92;39.43;45.44;;
67314;Laerm;57663;51.436;5.978;2022-07-22T00:39:54;40.87;39.49;42.37;;
67314;Laerm;57663;51.436;5.978;2022-07-22T00:40:04;41.12;39.47;43.69;;
67314;Laerm;57663;51.436;5.978;2022-07-22T00:40:15;44.41;40.74;49.66;;
67314;Laerm;57663;51.436;5.978;2022-07-22T00:40:25;51.23;43.87;58.57;;
67314;Laerm;57663;51.436;5.978;2022-07-22T00:40:36;51.41;43.69;58.83;;
67314;Laerm;57663;51.436;5.978;2022-07-22T00:40:46;51.32;45.84;61.23;;
67314;Laerm;57663;51.436;5.978;2022-07-22T00:40:56;51.75;42.55;68.29;;
67314;Laerm;57663;51.436;5.978;2022-07-22T00:41:06;45.69;41.74;51.90;;
67314;Laerm;57663;51.436;5.978;2022-07-22T00:41:17;44.70;40.75;56.35;;
67314;Laerm;57663;51.436;5.978;2022-07-22T00:41:27;44.63;40.29;56.86;;
67314;Laerm;57663;51.436;5.978;2022-07-22T00:41:37;41.15;39.75;45.97;;
67314;Laerm;57663;51.436;5.978;2022-07-22T00:41:48;41.03;39.84;42.95;;
67314;Laerm;57663;51.436;5.978;2022-07-22T00:42:01;41.08;39.47;53.38;;
67314;Laerm;57663;51.436;5.978;2022-07-22T00:42:12;41.60;39.60;48.51;;
67314;Laerm;57663;51.436;5.978;2022-07-22T00:42:22;40.70;39.13;42.66;;
67314;Laerm;57663;51.436;5.978;2022-07-22T00:42:32;40.59;39.45;41.71;;
67314;Laerm;57663;51.436;5.978;2022-07-22T00:42:44;40.78;39.49;47.61;;
67314;Laerm;57663;51.436;5.978;2022-07-22T00:42:54;40.52;39.64;44.29;;
67314;Laerm;57663;51.436;5.978;2022-07-22T00:43:05;40.97;39.29;47.11;;
67314;Laerm;57663;51.436;5.978;2022-07-22T00:43:15;42.00;39.20;57.05;;
67314;Laerm;57663;51.436;5.978;2022-07-22T00:43:25;40.56;39.56;41.59;;
67314;Laerm;57663;51.436;5.978;2022-07-22T00:43:54;40.50;39.34;42.82;;
67314;Laerm;57663;51.436;5.978;2022-07-22T00:44:06;41.33;38.93;61.97;;
67314;Laerm;57663;51.436;5.978;2022-07-22T00:44:16;40.57;38.93;46.69;;
67314;Laerm;57663;51.436;5.978;2022-07-22T00:44:27;40.61;39.57;42.01;;
67314;Laerm;57663;51.436;5.978;2022-07-22T00:44:37;40.73;39.74;41.95;;
67314;Laerm;57663;51.436;5.978;2022-07-22T00:44:47;40.62;39.30;42.43;;
67314;Laerm;57663;51.436;5.978;2022-07-22T00:44:58;40.59;39.28;44.10;;
67314;Laerm;57663;51.436;5.978;2022-07-22T00:45:08;40.71;39.31;42.23;;
67314;Laerm;57663;51.436;5.978;2022-07-22T00:45:19;40.48;39.26;42.76;;
67314;Laerm;57663;51.436;5.978;2022-07-22T00:45:29;40.48;39.51;41.52;;
67314;Laerm;57663;51.436;5.978;2022-07-22T00:45:39;40.33;39.30;44.03;;
67314;Laerm;57663;51.436;5.978;2022-07-22T00:45:50;40.55;39.44;42.99;;
67314;Laerm;57663;51.436;5.978;2022-07-22T00:46:00;40.56;39.17;44.04;;
67314;Laerm;57663;51.436;5.978;2022-07-22T00:46:10;40.59;39.42;41.90;;
67314;Laerm;57663;51.436;5.978;2022-07-22T00:46:21;40.36;39.39;44.87;;
67314;Laerm;57663;51.436;5.978;2022-07-22T00:46:32;40.69;39.53;43.21;;
67314;Laerm;57663;51.436;5.978;2022-07-22T00:46:42;40.78;39.56;41.86;;
67314;Laerm;57663;51.436;5.978;2022-07-22T00:46:53;40.63;39.61;44.42;;
67314;Laerm;57663;51.436;5.978;2022-07-22T00:47:03;40.53;39.34;43.99;;
67314;Laerm;57663;51.436;5.978;2022-07-22T00:47:14;40.69;39.61;42.04;;
67314;Laerm;57663;51.436;5.978;2022-07-22T00:47:24;40.69;39.83;41.80;;
67314;Laerm;57663;51.436;5.978;2022-07-22T00:47:35;40.73;39.64;42.14;;
67314;Laerm;57663;51.436;5.978;2022-07-22T00:47:45;40.89;39.41;42.16;;
67314;Laerm;57663;51.436;5.978;2022-07-22T00:47:55;40.57;39.33;44.34;;
67314;Laerm;57663;51.436;5.978;2022-07-22T00:48:06;40.64;39.14;43.16;;
67314;Laerm;57663;51.436;5.978;2022-07-22T00:48:16;40.89;39.68;44.78;;
67314;Laerm;57663;51.436;5.978;2022-07-22T00:48:26;40.62;39.32;43.92;;
67314;Laerm;57663;51.436;5.978;2022-07-22T00:48:37;40.90;39.76;41.92;;
67314;Laerm;57663;51.436;5.978;2022-07-22T00:48:47;41.03;39.68;47.36;;
67314;Laerm;57663;51.436;5.978;2022-07-22T00:48:58;40.68;39.65;42.04;;
67314;Laerm;57663;51.436;5.978;2022-07-22T00:49:08;40.88;39.78;42.29;;
67314;Laerm;57663;51.436;5.978;2022-07-22T00:49:19;58.17;40.97;67.72;;
67314;Laerm;57663;51.436;5.978;2022-07-22T00:49:29;42.79;40.00;50.19;;
67314;Laerm;57663;51.436;5.978;2022-07-22T00:49:40;40.76;39.55;44.31;;
67314;Laerm;57663;51.436;5.978;2022-07-22T00:49:50;40.39;39.29;41.54;;
67314;Laerm;57663;51.436;5.978;2022-07-22T00:50:00;40.67;39.55;41.73;;
67314;Laerm;57663;51.436;5.978;2022-07-22T00:50:11;40.56;39.30;41.81;;
67314;Laerm;57663;51.436;5.978;2022-07-22T00:50:21;40.73;39.50;41.93;;
67314;Laerm;57663;51.436;5.978;2022-07-22T00:50:33;40.79;39.71;42.22;;
67314;Laerm;57663;51.436;5.978;2022-07-22T00:50:44;40.67;39.50;43.60;;
67314;Laerm;57663;51.436;5.978;2022-07-22T00:50:55;40.62;39.45;45.22;;
67314;Laerm;57663;51.436;5.978;2022-07-22T00:51:05;40.54;39.21;42.38;;
67314;Laerm;57663;51.436;5.978;2022-07-22T00:51:16;40.53;39.36;43.42;;
67314;Laerm;57663;51.436;5.978;2022-07-22T00:51:27;40.61;39.17;42.24;;
67314;Laerm;57663;51.436;5.978;2022-07-22T00:51:38;40.70;39.53;43.41;;
67314;Laerm;57663;51.436;5.978;2022-07-22T00:51:49;40.47;39.24;43.62;;
67314;Laerm;57663;51.436;5.978;2022-07-22T00:51:59;40.42;39.17;41.42;;
67314;Laerm;57663;51.436;5.978;2022-07-22T00:52:10;40.63;39.60;42.57;;
67314;Laerm;57663;51.436;5.978;2022-07-22T00:52:20;40.52;39.17;41.59;;
67314;Laerm;57663;51.436;5.978;2022-07-22T00:52:32;40.35;39.01;41.62;;
67314;Laerm;57663;51.436;5.978;2022-07-22T00:52:43;40.43;39.28;41.68;;
67314;Laerm;57663;51.436;5.978;2022-07-22T00:52:53;40.61;39.58;41.90;;
67314;Laerm;57663;51.436;5.978;2022-07-22T00:53:04;40.46;39.27;43.55;;
67314;Laerm;57663;51.436;5.978;2022-07-22T00:53:15;40.63;39.25;45.58;;
67314;Laerm;57663;51.436;5.978;2022-07-22T00:53:25;40.67;39.18;41.94;;
67314;Laerm;57663;51.436;5.978;2022-07-22T00:53:35;40.63;39.54;42.96;;
67314;Laerm;57663;51.436;5.978;2022-07-22T00:53:46;40.66;39.65;43.66;;
67314;Laerm;57663;51.436;5.978;2022-07-22T00:53:56;40.72;39.72;43.08;;
67314;Laerm;57663;51.436;5.978;2022-07-22T00:54:07;40.54;39.27;44.43;;
67314;Laerm;57663;51.436;5.978;2022-07-22T00:54:17;40.69;39.45;41.85;;
67314;Laerm;57663;51.436;5.978;2022-07-22T00:54:28;40.71;39.50;43.63;;
67314;Laerm;57663;51.436;5.978;2022-07-22T00:54:38;40.79;39.80;41.98;;
67314;Laerm;57663;51.436;5.978;2022-07-22T00:54:49;40.82;39.52;41.90;;
67314;Laerm;57663;51.436;5.978;2022-07-22T00:55:00;40.77;39.64;42.30;;
67314;Laerm;57663;51.436;5.978;2022-07-22T00:55:10;40.61;39.18;41.80;;
67314;Laerm;57663;51.436;5.978;2022-07-22T00:55:21;40.66;39.45;41.97;;
67314;Laerm;57663;51.436;5.978;2022-07-22T00:55:32;40.56;39.43;45.28;;
67314;Laerm;57663;51.436;5.978;2022-07-22T00:55:43;40.56;39.29;41.83;;
67314;Laerm;57663;51.436;5.978;2022-07-22T00:55:53;40.50;39.11;42.73;;
67314;Laerm;57663;51.436;5.978;2022-07-22T00:56:04;40.38;39.33;41.74;;
67314;Laerm;57663;51.436;5.978;2022-07-22T00:56:15;43.16;39.37;47.93;;
67314;Laerm;57663;51.436;5.978;2022-07-22T00:56:26;40.63;39.01;43.22;;
67314;Laerm;57663;51.436;5.978;2022-07-22T00:56:37;40.46;39.37;43.03;;
67314;Laerm;57663;51.436;5.978;2022-07-22T00:56:48;40.71;39.70;44.74;;
67314;Laerm;57663;51.436;5.978;2022-07-22T00:56:58;40.48;39.42;41.36;;
67314;Laerm;57663;51.436;5.978;2022-07-22T00:57:09;40.44;39.15;41.64;;
67314;Laerm;57663;51.436;5.978;2022-07-22T00:57:19;40.48;39.35;41.57;;
67314;Laerm;57663;51.436;5.978;2022-07-22T00:57:29;40.57;39.11;42.16;;
67314;Laerm;57663;51.436;5.978;2022-07-22T00:57:40;40.55;39.34;41.62;;
67314;Laerm;57663;51.436;5.978;2022-07-22T00:57:50;40.47;39.39;41.48;;
67314;Laerm;57663;51.436;5.978;2022-07-22T00:58:01;40.40;39.47;41.61;;
67314;Laerm;57663;51.436;5.978;2022-07-22T00:58:12;40.74;39.43;42.09;;
67314;Laerm;57663;51.436;5.978;2022-07-22T00:58:22;40.34;38.98;41.65;;
67314;Laerm;57663;51.436;5.978;2022-07-22T00:58:32;40.36;39.31;41.66;;
67314;Laerm;57663;51.436;5.978;2022-07-22T00:58:43;40.28;39.25;41.25;;
67314;Laerm;57663;51.436;5.978;2022-07-22T00:58:55;40.52;39.18;42.93;;